sensor_id;sensor_type;location;lat;lon;timestamp;P1;durP1;ratioP1;P2;durP2;ratioP2
32186;SDS011;18686;53.084;8.872;2023-08-12T00:02:17;5.75;;;4.05;;
32186;SDS011;18686;53.084;8.872;2023-08-12T00:04:45;5.28;;;3.80;;
32186;SDS011;18686;53.084;8.872;2023-08-12T00:07:15;5.82;;;3.70;;
32186;SDS011;18686;53.084;8.872;2023-08-12T00:09:43;6.47;;;3.88;;
32186;SDS011;18686;53.084;8.872;2023-08-12T00:12:13;6.45;;;4.28;;
32186;SDS011;18686;53.084;8.872;2023-08-12T00:14:42;10.68;;;4.70;;
32186;SDS011;18686;53.084;8.872;2023-08-12T00:17:10;8.18;;;4.68;;
32186;SDS011;18686;53.084;8.872;2023-08-12T00:19:39;8.75;;;4.85;;
32186;SDS011;18686;53.084;8.872;2023-08-12T00:22:07;7.28;;;4.65;;
32186;SDS011;18686;53.084;8.872;2023-08-12T00:24:36;7.38;;;4.40;;
32186;SDS011;18686;53.084;8.872;2023-08-12T00:27:04;5.95;;;4.15;;
32186;SDS011;18686;53.084;8.872;2023-08-12T00:29:35;6.97;;;4.53;;
32186;SDS011;18686;53.084;8.872;2023-08-12T00:32:03;7.57;;;4.20;;
32186;SDS011;18686;53.084;8.872;2023-08-12T00:34:32;10.88;;;4.97;;
32186;SDS011;18686;53.084;8.872;2023-08-12T00:37:00;6.70;;;4.30;;
32186;SDS011;18686;53.084;8.872;2023-08-12T00:39:29;10.13;;;4.85;;
32186;SDS011;18686;53.084;8.872;2023-08-12T00:41:58;7.82;;;4.95;;
32186;SDS011;18686;53.084;8.872;2023-08-12T00:44:26;9.13;;;5.18;;
32186;SDS011;18686;53.084;8.872;2023-08-12T00:46:56;7.30;;;4.72;;
32186;SDS011;18686;53.084;8.872;2023-08-12T00:49:24;6.47;;;4.57;;
32186;SDS011;18686;53.084;8.872;2023-08-12T00:51:54;7.85;;;4.55;;
32186;SDS011;18686;53.084;8.872;2023-08-12T00:54:22;7.63;;;4.13;;
32186;SDS011;18686;53.084;8.872;2023-08-12T00:56:52;6.28;;;4.03;;
32186;SDS011;18686;53.084;8.872;2023-08-12T00:59:21;12.02;;;4.82;;
32186;SDS011;18686;53.084;8.872;2023-08-12T01:01:50;9.23;;;4.68;;
32186;SDS011;18686;53.084;8.872;2023-08-12T01:04:21;8.88;;;4.78;;
32186;SDS011;18686;53.084;8.872;2023-08-12T01:06:49;7.07;;;4.40;;
32186;SDS011;18686;53.084;8.872;2023-08-12T01:09:17;10.05;;;4.82;;
32186;SDS011;18686;53.084;8.872;2023-08-12T01:11:48;7.28;;;3.65;;
32186;SDS011;18686;53.084;8.872;2023-08-12T01:14:22;7.53;;;3.95;;
32186;SDS011;18686;53.084;8.872;2023-08-12T01:16:56;13.20;;;5.10;;
32186;SDS011;18686;53.084;8.872;2023-08-12T01:19:33;6.18;;;4.15;;
32186;SDS011;18686;53.084;8.872;2023-08-12T01:22:03;6.55;;;4.28;;
32186;SDS011;18686;53.084;8.872;2023-08-12T01:24:35;8.27;;;4.05;;
32186;SDS011;18686;53.084;8.872;2023-08-12T01:27:23;7.90;;;4.97;;
32186;SDS011;18686;53.084;8.872;2023-08-12T01:29:53;5.82;;;4.10;;
32186;SDS011;18686;53.084;8.872;2023-08-12T01:32:24;8.57;;;3.90;;
32186;SDS011;18686;53.084;8.872;2023-08-12T01:35:00;7.05;;;4.32;;
32186;SDS011;18686;53.084;8.872;2023-08-12T01:37:33;6.35;;;3.83;;
32186;SDS011;18686;53.084;8.872;2023-08-12T01:40:22;7.15;;;3.95;;
32186;SDS011;18686;53.084;8.872;2023-08-12T01:42:52;8.05;;;3.90;;
32186;SDS011;18686;53.084;8.872;2023-08-12T01:45:22;9.20;;;4.68;;
32186;SDS011;18686;53.084;8.872;2023-08-12T01:47:50;7.97;;;4.60;;
32186;SDS011;18686;53.084;8.872;2023-08-12T01:50:20;6.63;;;4.10;;
32186;SDS011;18686;53.084;8.872;2023-08-12T01:52:49;8.88;;;4.50;;
32186;SDS011;18686;53.084;8.872;2023-08-12T01:55:17;10.63;;;4.78;;
32186;SDS011;18686;53.084;8.872;2023-08-12T01:57:47;10.38;;;5.25;;
32186;SDS011;18686;53.084;8.872;2023-08-12T02:00:15;10.90;;;4.65;;
32186;SDS011;18686;53.084;8.872;2023-08-12T02:02:43;7.60;;;4.78;;
32186;SDS011;18686;53.084;8.872;2023-08-12T02:05:14;9.43;;;5.47;;
32186;SDS011;18686;53.084;8.872;2023-08-12T02:07:42;11.40;;;5.35;;
32186;SDS011;18686;53.084;8.872;2023-08-12T02:10:11;11.52;;;5.43;;
32186;SDS011;18686;53.084;8.872;2023-08-12T02:12:41;9.77;;;4.72;;
32186;SDS011;18686;53.084;8.872;2023-08-12T02:15:12;12.48;;;5.38;;
32186;SDS011;18686;53.084;8.872;2023-08-12T02:17:40;8.55;;;4.90;;
32186;SDS011;18686;53.084;8.872;2023-08-12T02:20:09;11.88;;;4.90;;
32186;SDS011;18686;53.084;8.872;2023-08-12T02:22:38;11.30;;;5.55;;
32186;SDS011;18686;53.084;8.872;2023-08-12T02:25:07;7.38;;;4.10;;
32186;SDS011;18686;53.084;8.872;2023-08-12T02:27:36;6.28;;;3.67;;
32186;SDS011;18686;53.084;8.872;2023-08-12T02:30:05;9.85;;;4.20;;
32186;SDS011;18686;53.084;8.872;2023-08-12T02:32:35;9.43;;;4.25;;
32186;SDS011;18686;53.084;8.872;2023-08-12T02:35:04;5.22;;;3.33;;
32186;SDS011;18686;53.084;8.872;2023-08-12T02:37:33;12.75;;;5.05;;
32186;SDS011;18686;53.084;8.872;2023-08-12T02:40:02;8.52;;;4.53;;
32186;SDS011;18686;53.084;8.872;2023-08-12T02:42:32;12.65;;;5.03;;
32186;SDS011;18686;53.084;8.872;2023-08-12T02:45:01;8.27;;;4.03;;
32186;SDS011;18686;53.084;8.872;2023-08-12T02:47:30;8.73;;;4.28;;
32186;SDS011;18686;53.084;8.872;2023-08-12T02:49:59;6.13;;;4.20;;
32186;SDS011;18686;53.084;8.872;2023-08-12T02:52:28;7.25;;;3.85;;
32186;SDS011;18686;53.084;8.872;2023-08-12T02:54:57;6.57;;;3.55;;
32186;SDS011;18686;53.084;8.872;2023-08-12T02:57:25;7.22;;;4.05;;
32186;SDS011;18686;53.084;8.872;2023-08-12T02:59:53;7.60;;;4.22;;
32186;SDS011;18686;53.084;8.872;2023-08-12T03:02:22;6.80;;;3.63;;
32186;SDS011;18686;53.084;8.872;2023-08-12T03:04:51;5.15;;;3.60;;
32186;SDS011;18686;53.084;8.872;2023-08-12T03:07:22;13.00;;;4.97;;
32186;SDS011;18686;53.084;8.872;2023-08-12T03:09:50;7.93;;;4.05;;
32186;SDS011;18686;53.084;8.872;2023-08-12T03:12:19;5.63;;;4.30;;
32186;SDS011;18686;53.084;8.872;2023-08-12T03:14:47;11.48;;;6.93;;
32186;SDS011;18686;53.084;8.872;2023-08-12T03:17:16;7.25;;;4.38;;
32186;SDS011;18686;53.084;8.872;2023-08-12T03:19:44;6.65;;;4.03;;
32186;SDS011;18686;53.084;8.872;2023-08-12T03:22:13;9.73;;;4.50;;
32186;SDS011;18686;53.084;8.872;2023-08-12T03:24:43;7.97;;;4.55;;
32186;SDS011;18686;53.084;8.872;2023-08-12T03:27:11;6.15;;;4.18;;
32186;SDS011;18686;53.084;8.872;2023-08-12T03:29:42;6.32;;;4.03;;
32186;SDS011;18686;53.084;8.872;2023-08-12T03:32:11;6.65;;;3.92;;
32186;SDS011;18686;53.084;8.872;2023-08-12T03:34:40;8.00;;;4.03;;
32186;SDS011;18686;53.084;8.872;2023-08-12T03:37:09;7.97;;;4.50;;
32186;SDS011;18686;53.084;8.872;2023-08-12T03:39:39;10.05;;;4.75;;
32186;SDS011;18686;53.084;8.872;2023-08-12T03:42:09;10.20;;;4.65;;
32186;SDS011;18686;53.084;8.872;2023-08-12T03:44:38;14.88;;;6.95;;
32186;SDS011;18686;53.084;8.872;2023-08-12T03:47:06;12.80;;;5.78;;
32186;SDS011;18686;53.084;8.872;2023-08-12T03:49:36;8.18;;;4.90;;
32186;SDS011;18686;53.084;8.872;2023-08-12T03:52:04;8.38;;;4.43;;
32186;SDS011;18686;53.084;8.872;2023-08-12T03:54:33;6.25;;;3.88;;
32186;SDS011;18686;53.084;8.872;2023-08-12T03:57:02;7.22;;;4.75;;
32186;SDS011;18686;53.084;8.872;2023-08-12T03:59:32;8.27;;;4.50;;
32186;SDS011;18686;53.084;8.872;2023-08-12T04:02:00;9.38;;;5.72;;
32186;SDS011;18686;53.084;8.872;2023-08-12T04:04:30;7.72;;;4.70;;
32186;SDS011;18686;53.084;8.872;2023-08-12T04:06:59;9.02;;;4.65;;
32186;SDS011;18686;53.084;8.872;2023-08-12T04:09:28;7.35;;;5.07;;
32186;SDS011;18686;53.084;8.872;2023-08-12T04:11:56;9.32;;;5.68;;
32186;SDS011;18686;53.084;8.872;2023-08-12T04:14:24;14.25;;;6.75;;
32186;SDS011;18686;53.084;8.872;2023-08-12T04:16:53;10.13;;;6.10;;
32186;SDS011;18686;53.084;8.872;2023-08-12T04:19:22;8.38;;;5.30;;
32186;SDS011;18686;53.084;8.872;2023-08-12T04:21:50;9.35;;;5.00;;
32186;SDS011;18686;53.084;8.872;2023-08-12T04:24:18;7.55;;;5.22;;
32186;SDS011;18686;53.084;8.872;2023-08-12T04:26:47;9.25;;;5.80;;
32186;SDS011;18686;53.084;8.872;2023-08-12T04:29:15;9.30;;;6.10;;
32186;SDS011;18686;53.084;8.872;2023-08-12T04:31:45;9.60;;;6.22;;
32186;SDS011;18686;53.084;8.872;2023-08-12T04:34:15;8.93;;;5.72;;
32186;SDS011;18686;53.084;8.872;2023-08-12T04:36:44;7.90;;;5.88;;
32186;SDS011;18686;53.084;8.872;2023-08-12T04:39:13;10.73;;;6.75;;
32186;SDS011;18686;53.084;8.872;2023-08-12T04:41:42;12.70;;;7.10;;
32186;SDS011;18686;53.084;8.872;2023-08-12T04:44:11;8.75;;;6.03;;
32186;SDS011;18686;53.084;8.872;2023-08-12T04:46:40;12.57;;;6.72;;
32186;SDS011;18686;53.084;8.872;2023-08-12T04:49:09;10.30;;;6.82;;
32186;SDS011;18686;53.084;8.872;2023-08-12T04:51:39;8.32;;;5.90;;
32186;SDS011;18686;53.084;8.872;2023-08-12T04:54:08;13.57;;;8.40;;
32186;SDS011;18686;53.084;8.872;2023-08-12T04:56:36;8.15;;;6.25;;
32186;SDS011;18686;53.084;8.872;2023-08-12T04:59:04;11.10;;;6.20;;
32186;SDS011;18686;53.084;8.872;2023-08-12T05:01:35;12.32;;;8.75;;
32186;SDS011;18686;53.084;8.872;2023-08-12T05:04:11;11.98;;;8.40;;
32186;SDS011;18686;53.084;8.872;2023-08-12T05:06:40;9.15;;;7.10;;
32186;SDS011;18686;53.084;8.872;2023-08-12T05:09:09;13.40;;;8.18;;
32186;SDS011;18686;53.084;8.872;2023-08-12T05:11:38;12.00;;;9.18;;
32186;SDS011;18686;53.084;8.872;2023-08-12T05:14:08;17.48;;;10.50;;
32186;SDS011;18686;53.084;8.872;2023-08-12T05:16:36;17.23;;;9.75;;
32186;SDS011;18686;53.084;8.872;2023-08-12T05:19:05;17.60;;;9.52;;
32186;SDS011;18686;53.084;8.872;2023-08-12T05:21:33;12.00;;;7.93;;
32186;SDS011;18686;53.084;8.872;2023-08-12T05:24:03;13.15;;;10.65;;
32186;SDS011;18686;53.084;8.872;2023-08-12T05:26:32;17.83;;;10.95;;
32186;SDS011;18686;53.084;8.872;2023-08-12T05:29:01;17.75;;;12.50;;
32186;SDS011;18686;53.084;8.872;2023-08-12T05:31:30;15.40;;;10.93;;
32186;SDS011;18686;53.084;8.872;2023-08-12T05:33:58;17.67;;;11.75;;
32186;SDS011;18686;53.084;8.872;2023-08-12T05:36:26;19.33;;;13.10;;
32186;SDS011;18686;53.084;8.872;2023-08-12T05:38:55;16.95;;;10.93;;
32186;SDS011;18686;53.084;8.872;2023-08-12T05:41:24;16.33;;;11.50;;
32186;SDS011;18686;53.084;8.872;2023-08-12T05:43:53;18.45;;;12.38;;
32186;SDS011;18686;53.084;8.872;2023-08-12T05:46:23;20.05;;;13.60;;
32186;SDS011;18686;53.084;8.872;2023-08-12T05:48:51;18.75;;;12.88;;
32186;SDS011;18686;53.084;8.872;2023-08-12T05:51:20;17.83;;;12.95;;
32186;SDS011;18686;53.084;8.872;2023-08-12T05:53:48;20.55;;;13.77;;
32186;SDS011;18686;53.084;8.872;2023-08-12T05:56:17;19.52;;;13.13;;
32186;SDS011;18686;53.084;8.872;2023-08-12T05:58:46;19.85;;;12.38;;
32186;SDS011;18686;53.084;8.872;2023-08-12T06:01:14;15.15;;;11.65;;
32186;SDS011;18686;53.084;8.872;2023-08-12T06:03:43;12.73;;;9.30;;
32186;SDS011;18686;53.084;8.872;2023-08-12T06:06:11;16.42;;;10.43;;
32186;SDS011;18686;53.084;8.872;2023-08-12T06:08:39;17.65;;;12.32;;
32186;SDS011;18686;53.084;8.872;2023-08-12T06:11:07;13.70;;;10.00;;
32186;SDS011;18686;53.084;8.872;2023-08-12T06:13:36;24.73;;;16.92;;
32186;SDS011;18686;53.084;8.872;2023-08-12T06:16:05;23.63;;;17.42;;
32186;SDS011;18686;53.084;8.872;2023-08-12T06:18:35;26.80;;;18.02;;
32186;SDS011;18686;53.084;8.872;2023-08-12T06:21:03;22.08;;;16.05;;
32186;SDS011;18686;53.084;8.872;2023-08-12T06:23:32;24.15;;;16.13;;
32186;SDS011;18686;53.084;8.872;2023-08-12T06:26:01;26.63;;;18.80;;
32186;SDS011;18686;53.084;8.872;2023-08-12T06:28:29;27.35;;;16.77;;
32186;SDS011;18686;53.084;8.872;2023-08-12T06:30:58;22.00;;;16.30;;
32186;SDS011;18686;53.084;8.872;2023-08-12T06:33:27;19.10;;;14.95;;
32186;SDS011;18686;53.084;8.872;2023-08-12T06:35:56;19.50;;;13.63;;
32186;SDS011;18686;53.084;8.872;2023-08-12T06:38:24;20.38;;;14.63;;
32186;SDS011;18686;53.084;8.872;2023-08-12T06:40:52;20.75;;;13.13;;
32186;SDS011;18686;53.084;8.872;2023-08-12T06:43:22;20.65;;;15.13;;
32186;SDS011;18686;53.084;8.872;2023-08-12T06:45:53;23.02;;;16.25;;
32186;SDS011;18686;53.084;8.872;2023-08-12T06:48:22;20.95;;;18.75;;
32186;SDS011;18686;53.084;8.872;2023-08-12T06:50:54;23.25;;;18.70;;
32186;SDS011;18686;53.084;8.872;2023-08-12T06:53:26;22.20;;;17.90;;
32186;SDS011;18686;53.084;8.872;2023-08-12T06:55:54;19.55;;;13.65;;
32186;SDS011;18686;53.084;8.872;2023-08-12T06:58:23;19.13;;;13.85;;
32186;SDS011;18686;53.084;8.872;2023-08-12T07:00:51;23.45;;;14.90;;
32186;SDS011;18686;53.084;8.872;2023-08-12T07:03:19;24.33;;;16.90;;
32186;SDS011;18686;53.084;8.872;2023-08-12T07:05:48;21.45;;;14.65;;
32186;SDS011;18686;53.084;8.872;2023-08-12T07:08:18;25.73;;;18.85;;
32186;SDS011;18686;53.084;8.872;2023-08-12T07:10:46;25.92;;;17.45;;
32186;SDS011;18686;53.084;8.872;2023-08-12T07:13:14;35.97;;;21.80;;
32186;SDS011;18686;53.084;8.872;2023-08-12T07:15:43;29.52;;;20.13;;
32186;SDS011;18686;53.084;8.872;2023-08-12T07:18:11;30.42;;;20.58;;
32186;SDS011;18686;53.084;8.872;2023-08-12T07:20:39;27.75;;;19.33;;
32186;SDS011;18686;53.084;8.872;2023-08-12T07:23:08;28.95;;;17.98;;
32186;SDS011;18686;53.084;8.872;2023-08-12T07:25:37;27.48;;;18.50;;
32186;SDS011;18686;53.084;8.872;2023-08-12T07:28:05;38.35;;;22.17;;
32186;SDS011;18686;53.084;8.872;2023-08-12T07:30:35;45.47;;;26.77;;
32186;SDS011;18686;53.084;8.872;2023-08-12T07:33:04;53.63;;;26.15;;
32186;SDS011;18686;53.084;8.872;2023-08-12T07:35:32;44.60;;;27.75;;
32186;SDS011;18686;53.084;8.872;2023-08-12T07:38:00;28.17;;;20.52;;
32186;SDS011;18686;53.084;8.872;2023-08-12T07:40:28;35.33;;;22.75;;
32186;SDS011;18686;53.084;8.872;2023-08-12T07:42:58;29.92;;;20.75;;
32186;SDS011;18686;53.084;8.872;2023-08-12T07:45:26;38.13;;;25.27;;
32186;SDS011;18686;53.084;8.872;2023-08-12T07:47:55;41.03;;;26.13;;
32186;SDS011;18686;53.084;8.872;2023-08-12T07:50:23;41.10;;;24.90;;
32186;SDS011;18686;53.084;8.872;2023-08-12T07:52:51;31.40;;;18.92;;
32186;SDS011;18686;53.084;8.872;2023-08-12T07:55:20;44.55;;;24.98;;
32186;SDS011;18686;53.084;8.872;2023-08-12T07:57:51;45.00;;;26.02;;
32186;SDS011;18686;53.084;8.872;2023-08-12T08:00:21;19.25;;;15.35;;
32186;SDS011;18686;53.084;8.872;2023-08-12T08:02:49;41.90;;;23.33;;
32186;SDS011;18686;53.084;8.872;2023-08-12T08:05:18;45.15;;;25.38;;
32186;SDS011;18686;53.084;8.872;2023-08-12T08:07:46;37.97;;;21.42;;
32186;SDS011;18686;53.084;8.872;2023-08-12T08:10:14;28.08;;;18.13;;
32186;SDS011;18686;53.084;8.872;2023-08-12T08:12:42;19.92;;;14.07;;
32186;SDS011;18686;53.084;8.872;2023-08-12T08:15:11;19.80;;;14.70;;
32186;SDS011;18686;53.084;8.872;2023-08-12T08:17:40;28.60;;;16.90;;
32186;SDS011;18686;53.084;8.872;2023-08-12T08:20:09;22.50;;;16.00;;
32186;SDS011;18686;53.084;8.872;2023-08-12T08:22:38;28.23;;;17.08;;
32186;SDS011;18686;53.084;8.872;2023-08-12T08:25:07;18.73;;;13.57;;
32186;SDS011;18686;53.084;8.872;2023-08-12T08:27:35;27.50;;;16.60;;
32186;SDS011;18686;53.084;8.872;2023-08-12T08:30:06;24.48;;;15.35;;
32186;SDS011;18686;53.084;8.872;2023-08-12T08:32:36;27.10;;;19.83;;
32186;SDS011;18686;53.084;8.872;2023-08-12T08:35:06;17.90;;;12.68;;
32186;SDS011;18686;53.084;8.872;2023-08-12T08:37:35;25.52;;;16.55;;
32186;SDS011;18686;53.084;8.872;2023-08-12T08:40:03;17.27;;;12.10;;
32186;SDS011;18686;53.084;8.872;2023-08-12T08:42:34;30.73;;;19.17;;
32186;SDS011;18686;53.084;8.872;2023-08-12T08:45:04;25.25;;;17.73;;
32186;SDS011;18686;53.084;8.872;2023-08-12T08:47:39;27.80;;;19.13;;
32186;SDS011;18686;53.084;8.872;2023-08-12T08:50:11;27.35;;;17.17;;
32186;SDS011;18686;53.084;8.872;2023-08-12T08:52:40;26.30;;;15.98;;
32186;SDS011;18686;53.084;8.872;2023-08-12T08:55:09;26.38;;;17.40;;
32186;SDS011;18686;53.084;8.872;2023-08-12T08:57:39;22.95;;;15.32;;
32186;SDS011;18686;53.084;8.872;2023-08-12T09:02:44;29.63;;;19.50;;
32186;SDS011;18686;53.084;8.872;2023-08-12T09:05:16;30.15;;;18.17;;
32186;SDS011;18686;53.084;8.872;2023-08-12T09:07:45;24.38;;;18.77;;
32186;SDS011;18686;53.084;8.872;2023-08-12T09:10:14;26.05;;;19.05;;
32186;SDS011;18686;53.084;8.872;2023-08-12T09:12:44;32.63;;;20.35;;
32186;SDS011;18686;53.084;8.872;2023-08-12T09:15:13;31.42;;;21.75;;
32186;SDS011;18686;53.084;8.872;2023-08-12T09:17:44;33.58;;;19.50;;
32186;SDS011;18686;53.084;8.872;2023-08-12T09:20:12;28.42;;;21.45;;
32186;SDS011;18686;53.084;8.872;2023-08-12T09:22:42;29.38;;;20.52;;
32186;SDS011;18686;53.084;8.872;2023-08-12T09:25:11;30.42;;;20.27;;
32186;SDS011;18686;53.084;8.872;2023-08-12T09:27:39;32.42;;;21.83;;
32186;SDS011;18686;53.084;8.872;2023-08-12T09:30:08;27.23;;;18.33;;
32186;SDS011;18686;53.084;8.872;2023-08-12T09:32:39;43.83;;;24.35;;
32186;SDS011;18686;53.084;8.872;2023-08-12T09:35:13;35.42;;;21.85;;
32186;SDS011;18686;53.084;8.872;2023-08-12T09:37:45;36.17;;;24.27;;
32186;SDS011;18686;53.084;8.872;2023-08-12T09:40:13;26.88;;;19.42;;
32186;SDS011;18686;53.084;8.872;2023-08-12T09:42:44;28.33;;;22.05;;
32186;SDS011;18686;53.084;8.872;2023-08-12T09:45:13;33.47;;;24.55;;
32186;SDS011;18686;53.084;8.872;2023-08-12T09:47:42;27.95;;;19.45;;
32186;SDS011;18686;53.084;8.872;2023-08-12T09:50:11;36.97;;;24.83;;
32186;SDS011;18686;53.084;8.872;2023-08-12T09:52:40;29.95;;;23.75;;
32186;SDS011;18686;53.084;8.872;2023-08-12T09:55:09;34.25;;;21.05;;
32186;SDS011;18686;53.084;8.872;2023-08-12T09:57:41;42.33;;;27.50;;
32186;SDS011;18686;53.084;8.872;2023-08-12T10:00:11;42.08;;;30.77;;
32186;SDS011;18686;53.084;8.872;2023-08-12T10:02:43;43.63;;;26.80;;
32186;SDS011;18686;53.084;8.872;2023-08-12T10:05:15;52.55;;;33.13;;
32186;SDS011;18686;53.084;8.872;2023-08-12T10:07:47;41.63;;;27.92;;
32186;SDS011;18686;53.084;8.872;2023-08-12T10:10:17;39.42;;;25.95;;
32186;SDS011;18686;53.084;8.872;2023-08-12T10:12:45;45.15;;;31.70;;
32186;SDS011;18686;53.084;8.872;2023-08-12T10:15:15;50.40;;;32.22;;
32186;SDS011;18686;53.084;8.872;2023-08-12T10:17:44;42.35;;;28.95;;
32186;SDS011;18686;53.084;8.872;2023-08-12T10:20:13;52.28;;;32.40;;
32186;SDS011;18686;53.084;8.872;2023-08-12T10:22:48;32.92;;;25.02;;
32186;SDS011;18686;53.084;8.872;2023-08-12T10:25:19;54.88;;;34.22;;
32186;SDS011;18686;53.084;8.872;2023-08-12T10:27:49;43.17;;;29.08;;
32186;SDS011;18686;53.084;8.872;2023-08-12T10:30:20;54.30;;;36.00;;
32186;SDS011;18686;53.084;8.872;2023-08-12T10:32:48;56.28;;;34.25;;
32186;SDS011;18686;53.084;8.872;2023-08-12T10:35:17;44.20;;;31.13;;
32186;SDS011;18686;53.084;8.872;2023-08-12T10:37:48;48.78;;;33.50;;
32186;SDS011;18686;53.084;8.872;2023-08-12T10:40:22;60.97;;;33.90;;
32186;SDS011;18686;53.084;8.872;2023-08-12T10:42:51;50.22;;;31.58;;
32186;SDS011;18686;53.084;8.872;2023-08-12T10:45:19;51.08;;;32.42;;
32186;SDS011;18686;53.084;8.872;2023-08-12T10:47:48;67.97;;;38.72;;
32186;SDS011;18686;53.084;8.872;2023-08-12T10:50:21;48.17;;;31.25;;
32186;SDS011;18686;53.084;8.872;2023-08-12T10:52:53;62.80;;;36.25;;
32186;SDS011;18686;53.084;8.872;2023-08-12T10:55:23;73.70;;;39.55;;
32186;SDS011;18686;53.084;8.872;2023-08-12T10:57:53;57.95;;;36.95;;
32186;SDS011;18686;53.084;8.872;2023-08-12T11:00:23;47.63;;;30.02;;
32186;SDS011;18686;53.084;8.872;2023-08-12T11:02:53;50.58;;;30.55;;
32186;SDS011;18686;53.084;8.872;2023-08-12T11:05:23;65.07;;;37.85;;
32186;SDS011;18686;53.084;8.872;2023-08-12T11:08:03;62.50;;;36.42;;
32186;SDS011;18686;53.084;8.872;2023-08-12T11:10:35;49.50;;;30.17;;
32186;SDS011;18686;53.084;8.872;2023-08-12T11:13:03;67.90;;;40.45;;
32186;SDS011;18686;53.084;8.872;2023-08-12T11:15:32;58.05;;;35.55;;
32186;SDS011;18686;53.084;8.872;2023-08-12T11:18:03;60.05;;;36.67;;
32186;SDS011;18686;53.084;8.872;2023-08-12T11:20:32;53.33;;;33.55;;
32186;SDS011;18686;53.084;8.872;2023-08-12T11:23:01;58.58;;;35.45;;
32186;SDS011;18686;53.084;8.872;2023-08-12T11:25:31;50.65;;;32.92;;
32186;SDS011;18686;53.084;8.872;2023-08-12T11:28:03;54.42;;;33.70;;
32186;SDS011;18686;53.084;8.872;2023-08-12T11:30:32;54.88;;;31.63;;
32186;SDS011;18686;53.084;8.872;2023-08-12T11:33:01;48.53;;;29.73;;
32186;SDS011;18686;53.084;8.872;2023-08-12T11:35:29;54.03;;;28.38;;
32186;SDS011;18686;53.084;8.872;2023-08-12T11:37:58;36.55;;;22.77;;
32186;SDS011;18686;53.084;8.872;2023-08-12T11:40:27;31.42;;;22.80;;
32186;SDS011;18686;53.084;8.872;2023-08-12T11:42:56;34.53;;;23.05;;
32186;SDS011;18686;53.084;8.872;2023-08-12T11:45:26;38.60;;;23.70;;
32186;SDS011;18686;53.084;8.872;2023-08-12T11:47:55;41.33;;;26.38;;
32186;SDS011;18686;53.084;8.872;2023-08-12T11:50:25;32.20;;;22.45;;
32186;SDS011;18686;53.084;8.872;2023-08-12T11:52:55;42.38;;;26.48;;
32186;SDS011;18686;53.084;8.872;2023-08-12T11:55:25;41.70;;;25.42;;
32186;SDS011;18686;53.084;8.872;2023-08-12T11:57:53;28.55;;;20.27;;
32186;SDS011;18686;53.084;8.872;2023-08-12T12:00:22;35.35;;;23.10;;
32186;SDS011;18686;53.084;8.872;2023-08-12T12:02:55;31.70;;;20.50;;
32186;SDS011;18686;53.084;8.872;2023-08-12T12:05:25;28.90;;;21.08;;
32186;SDS011;18686;53.084;8.872;2023-08-12T12:07:56;22.52;;;16.23;;
32186;SDS011;18686;53.084;8.872;2023-08-12T12:10:26;18.27;;;14.02;;
32186;SDS011;18686;53.084;8.872;2023-08-12T12:15:31;27.90;;;20.63;;
32186;SDS011;18686;53.084;8.872;2023-08-12T12:18:09;26.92;;;19.48;;
32186;SDS011;18686;53.084;8.872;2023-08-12T12:20:41;35.25;;;22.65;;
32186;SDS011;18686;53.084;8.872;2023-08-12T12:23:21;24.80;;;18.05;;
32186;SDS011;18686;53.084;8.872;2023-08-12T12:25:49;27.73;;;18.58;;
32186;SDS011;18686;53.084;8.872;2023-08-12T12:28:25;27.23;;;19.55;;
32186;SDS011;18686;53.084;8.872;2023-08-12T12:30:55;23.08;;;17.23;;
32186;SDS011;18686;53.084;8.872;2023-08-12T12:33:24;30.55;;;18.70;;
32186;SDS011;18686;53.084;8.872;2023-08-12T12:35:52;22.80;;;17.60;;
32186;SDS011;18686;53.084;8.872;2023-08-12T12:38:25;20.92;;;16.48;;
32186;SDS011;18686;53.084;8.872;2023-08-12T12:40:54;25.23;;;18.20;;
32186;SDS011;18686;53.084;8.872;2023-08-12T12:43:24;23.23;;;16.02;;
32186;SDS011;18686;53.084;8.872;2023-08-12T12:45:53;20.20;;;15.30;;
32186;SDS011;18686;53.084;8.872;2023-08-12T12:48:22;19.98;;;15.90;;
32186;SDS011;18686;53.084;8.872;2023-08-12T12:50:51;21.30;;;14.35;;
32186;SDS011;18686;53.084;8.872;2023-08-12T12:53:20;19.55;;;14.00;;
32186;SDS011;18686;53.084;8.872;2023-08-12T12:55:48;20.30;;;13.55;;
32186;SDS011;18686;53.084;8.872;2023-08-12T12:58:16;15.80;;;12.15;;
32186;SDS011;18686;53.084;8.872;2023-08-12T13:00:45;13.65;;;10.63;;
32186;SDS011;18686;53.084;8.872;2023-08-12T13:03:13;15.07;;;12.00;;
32186;SDS011;18686;53.084;8.872;2023-08-12T13:05:43;12.45;;;10.27;;
32186;SDS011;18686;53.084;8.872;2023-08-12T13:08:11;11.43;;;9.23;;
32186;SDS011;18686;53.084;8.872;2023-08-12T13:10:40;11.80;;;10.68;;
32186;SDS011;18686;53.084;8.872;2023-08-12T13:13:08;13.10;;;9.32;;
32186;SDS011;18686;53.084;8.872;2023-08-12T13:15:36;9.85;;;7.68;;
32186;SDS011;18686;53.084;8.872;2023-08-12T13:18:05;8.07;;;7.35;;
32186;SDS011;18686;53.084;8.872;2023-08-12T13:20:33;20.90;;;7.88;;
32186;SDS011;18686;53.084;8.872;2023-08-12T13:23:03;8.48;;;7.68;;
32186;SDS011;18686;53.084;8.872;2023-08-12T13:25:32;8.80;;;7.90;;
32186;SDS011;18686;53.084;8.872;2023-08-12T13:28:02;8.93;;;8.02;;
32186;SDS011;18686;53.084;8.872;2023-08-12T13:30:31;13.48;;;8.60;;
32186;SDS011;18686;53.084;8.872;2023-08-12T13:32:59;11.50;;;8.88;;
32186;SDS011;18686;53.084;8.872;2023-08-12T13:35:28;7.50;;;6.75;;
32186;SDS011;18686;53.084;8.872;2023-08-12T13:37:57;7.65;;;6.85;;
32186;SDS011;18686;53.084;8.872;2023-08-12T13:40:27;5.70;;;5.10;;
32186;SDS011;18686;53.084;8.872;2023-08-12T13:42:55;5.35;;;4.85;;
32186;SDS011;18686;53.084;8.872;2023-08-12T13:45:23;11.57;;;6.25;;
32186;SDS011;18686;53.084;8.872;2023-08-12T13:47:52;5.72;;;5.28;;
32186;SDS011;18686;53.084;8.872;2023-08-12T13:50:21;7.25;;;5.70;;
32186;SDS011;18686;53.084;8.872;2023-08-12T13:52:49;5.55;;;5.05;;
32186;SDS011;18686;53.084;8.872;2023-08-12T13:55:18;6.40;;;5.80;;
32186;SDS011;18686;53.084;8.872;2023-08-12T13:57:47;5.93;;;5.43;;
32186;SDS011;18686;53.084;8.872;2023-08-12T14:00:16;7.10;;;5.50;;
32186;SDS011;18686;53.084;8.872;2023-08-12T14:02:45;13.45;;;6.07;;
32186;SDS011;18686;53.084;8.872;2023-08-12T14:05:14;5.25;;;4.75;;
32186;SDS011;18686;53.084;8.872;2023-08-12T14:07:43;5.57;;;5.07;;
32186;SDS011;18686;53.084;8.872;2023-08-12T14:10:11;15.18;;;4.93;;
32186;SDS011;18686;53.084;8.872;2023-08-12T14:12:40;6.32;;;4.20;;
32186;SDS011;18686;53.084;8.872;2023-08-12T14:15:10;4.82;;;4.43;;
32186;SDS011;18686;53.084;8.872;2023-08-12T14:17:39;3.63;;;3.33;;
32186;SDS011;18686;53.084;8.872;2023-08-12T14:20:08;4.85;;;4.38;;
32186;SDS011;18686;53.084;8.872;2023-08-12T14:22:38;4.15;;;3.75;;
32186;SDS011;18686;53.084;8.872;2023-08-12T14:25:07;4.80;;;4.10;;
32186;SDS011;18686;53.084;8.872;2023-08-12T14:27:35;3.67;;;3.38;;
32186;SDS011;18686;53.084;8.872;2023-08-12T14:30:04;2.40;;;2.20;;
32186;SDS011;18686;53.084;8.872;2023-08-12T14:32:34;2.08;;;1.15;;
32186;SDS011;18686;53.084;8.872;2023-08-12T14:35:03;1.20;;;1.10;;
32186;SDS011;18686;53.084;8.872;2023-08-12T14:37:32;2.75;;;0.70;;
32186;SDS011;18686;53.084;8.872;2023-08-12T14:40:00;0.70;;;0.70;;
32186;SDS011;18686;53.084;8.872;2023-08-12T14:42:29;0.65;;;0.38;;
32186;SDS011;18686;53.084;8.872;2023-08-12T14:44:57;0.35;;;0.30;;
32186;SDS011;18686;53.084;8.872;2023-08-12T14:47:25;1.42;;;0.30;;
32186;SDS011;18686;53.084;8.872;2023-08-12T14:49:55;0.52;;;0.40;;
32186;SDS011;18686;53.084;8.872;2023-08-12T14:52:24;0.20;;;0.20;;